CZUM/ZUM METAR and TAF weather

Enter ICAO airport designator
Station Type Date Time Source
CZUM METAR 2020/03/29 11:00 UTC NOAA

CZUM 291100Z AUTO 05002KT 9SM CLR M22/M26 A3023 RMK SLP282


Station Type Date Time Source
CZUM Decoded METAR 2020/03/29 11:00 UTC NOAA

Churchill Falls, Nfld., Canada (CZUM) 53-33N 064-06W 440M
Mar 29, 2020 - 07:00 AM EDT / 2020.03.29 1100 UTC
Wind: from the NE (050 degrees) at 2 MPH (2 KT):0
Visibility: 9 mile(s):0
Sky conditions: clear
Temperature: -7 F (-22 C)
Dew Point: -14 F (-26 C)
Relative Humidity: 69%
Pressure (altimeter): 30.23 in. Hg (1023 hPa)
ob: CZUM 291100Z AUTO 05002KT 9SM CLR M22/M26 A3023 RMK SLP282
cycle: 11

Station Type Date Time Source
CZUM TAF 2020/03/29 08:42 UTC NOAA

TAF CZUM 290738Z 2908/2920 VRB03KT P6SM SKC
RMK FCST BASED ON AUTO OBS. NXT FCST BY 291400Z

Example: see airport list